sensor_id;sensor_type;location;lat;lon;timestamp;temperature;humidity
810;DHT22;387;48.772;9.186;2023-06-22T00:02:08;22.90;76.70
810;DHT22;387;48.772;9.186;2023-06-22T00:04:34;22.80;77.00
810;DHT22;387;48.772;9.186;2023-06-22T00:06:59;22.80;77.60
810;DHT22;387;48.772;9.186;2023-06-22T00:09:25;22.80;77.70
810;DHT22;387;48.772;9.186;2023-06-22T00:11:50;22.70;77.40
810;DHT22;387;48.772;9.186;2023-06-22T00:14:16;22.70;77.80
810;DHT22;387;48.772;9.186;2023-06-22T00:16:41;22.70;77.80
810;DHT22;387;48.772;9.186;2023-06-22T00:19:08;22.70;78.00
810;DHT22;387;48.772;9.186;2023-06-22T00:21:36;22.70;78.00
810;DHT22;387;48.772;9.186;2023-06-22T00:24:03;22.70;78.00
810;DHT22;387;48.772;9.186;2023-06-22T00:26:29;22.70;77.80
810;DHT22;387;48.772;9.186;2023-06-22T00:28:55;22.70;78.00
810;DHT22;387;48.772;9.186;2023-06-22T00:31:20;22.70;78.00
810;DHT22;387;48.772;9.186;2023-06-22T00:33:46;22.70;77.80
810;DHT22;387;48.772;9.186;2023-06-22T00:36:12;22.60;78.30
810;DHT22;387;48.772;9.186;2023-06-22T00:38:41;22.60;78.30
810;DHT22;387;48.772;9.186;2023-06-22T00:41:07;22.60;78.40
810;DHT22;387;48.772;9.186;2023-06-22T00:43:32;22.60;78.60
810;DHT22;387;48.772;9.186;2023-06-22T00:45:58;22.60;78.60
810;DHT22;387;48.772;9.186;2023-06-22T00:48:24;22.60;78.60
810;DHT22;387;48.772;9.186;2023-06-22T00:50:50;22.50;78.70
810;DHT22;387;48.772;9.186;2023-06-22T00:53:16;22.40;79.00
810;DHT22;387;48.772;9.186;2023-06-22T00:55:44;22.40;79.20
810;DHT22;387;48.772;9.186;2023-06-22T00:58:12;22.40;79.00
810;DHT22;387;48.772;9.186;2023-06-22T01:00:39;22.40;79.20
810;DHT22;387;48.772;9.186;2023-06-22T01:03:05;22.40;79.50
810;DHT22;387;48.772;9.186;2023-06-22T01:05:34;22.40;79.50
810;DHT22;387;48.772;9.186;2023-06-22T01:11:00;22.40;79.20
810;DHT22;387;48.772;9.186;2023-06-22T01:16:23;22.20;79.70
810;DHT22;387;48.772;9.186;2023-06-22T01:18:52;22.10;80.20
810;DHT22;387;48.772;9.186;2023-06-22T01:21:20;22.00;80.80
810;DHT22;387;48.772;9.186;2023-06-22T01:24:15;21.90;81.10
810;DHT22;387;48.772;9.186;2023-06-22T01:29:11;21.90;81.40
810;DHT22;387;48.772;9.186;2023-06-22T01:31:39;22.00;81.40
810;DHT22;387;48.772;9.186;2023-06-22T01:34:07;22.00;81.20
810;DHT22;387;48.772;9.186;2023-06-22T01:36:34;22.00;81.10
810;DHT22;387;48.772;9.186;2023-06-22T01:39:02;22.00;81.10
810;DHT22;387;48.772;9.186;2023-06-22T01:41:30;21.90;80.90
810;DHT22;387;48.772;9.186;2023-06-22T01:43:56;21.90;81.40
810;DHT22;387;48.772;9.186;2023-06-22T01:46:23;21.80;81.70
810;DHT22;387;48.772;9.186;2023-06-22T01:48:49;21.80;81.80
810;DHT22;387;48.772;9.186;2023-06-22T01:51:15;21.80;81.80
810;DHT22;387;48.772;9.186;2023-06-22T01:53:41;21.70;81.90
810;DHT22;387;48.772;9.186;2023-06-22T01:56:08;21.70;82.10
810;DHT22;387;48.772;9.186;2023-06-22T01:58:36;21.70;82.10
810;DHT22;387;48.772;9.186;2023-06-22T02:01:09;21.70;82.20
810;DHT22;387;48.772;9.186;2023-06-22T02:03:38;21.80;81.90
810;DHT22;387;48.772;9.186;2023-06-22T02:06:08;21.80;81.80
810;DHT22;387;48.772;9.186;2023-06-22T02:08:41;21.80;81.70
810;DHT22;387;48.772;9.186;2023-06-22T02:11:09;21.80;81.70
810;DHT22;387;48.772;9.186;2023-06-22T02:13:36;21.80;81.70
810;DHT22;387;48.772;9.186;2023-06-22T02:16:03;21.70;81.80
810;DHT22;387;48.772;9.186;2023-06-22T02:18:29;21.70;81.90
810;DHT22;387;48.772;9.186;2023-06-22T02:20:54;21.70;81.90
810;DHT22;387;48.772;9.186;2023-06-22T02:23:20;21.60;82.10
810;DHT22;387;48.772;9.186;2023-06-22T02:25:46;21.60;82.40
810;DHT22;387;48.772;9.186;2023-06-22T02:28:11;21.50;82.80
810;DHT22;387;48.772;9.186;2023-06-22T02:30:37;21.50;82.70
810;DHT22;387;48.772;9.186;2023-06-22T02:33:02;21.50;82.80
810;DHT22;387;48.772;9.186;2023-06-22T02:35:29;21.50;83.00
810;DHT22;387;48.772;9.186;2023-06-22T02:38:01;21.50;83.00
810;DHT22;387;48.772;9.186;2023-06-22T02:40:28;21.40;83.00
810;DHT22;387;48.772;9.186;2023-06-22T02:42:54;21.30;83.30
810;DHT22;387;48.772;9.186;2023-06-22T02:45:20;21.30;83.60
810;DHT22;387;48.772;9.186;2023-06-22T02:47:46;21.20;83.80
810;DHT22;387;48.772;9.186;2023-06-22T02:50:13;21.20;84.10
810;DHT22;387;48.772;9.186;2023-06-22T02:52:38;21.20;84.10
810;DHT22;387;48.772;9.186;2023-06-22T02:55:05;21.20;84.10
810;DHT22;387;48.772;9.186;2023-06-22T02:57:32;21.20;84.10
810;DHT22;387;48.772;9.186;2023-06-22T02:59:58;21.20;84.10
810;DHT22;387;48.772;9.186;2023-06-22T03:02:24;21.10;84.10
810;DHT22;387;48.772;9.186;2023-06-22T03:04:51;21.00;84.40
810;DHT22;387;48.772;9.186;2023-06-22T03:07:19;21.00;84.70
810;DHT22;387;48.772;9.186;2023-06-22T03:09:45;21.00;85.00
810;DHT22;387;48.772;9.186;2023-06-22T03:12:11;21.00;84.90
810;DHT22;387;48.772;9.186;2023-06-22T03:14:37;21.00;85.00
810;DHT22;387;48.772;9.186;2023-06-22T03:17:04;21.00;85.00
810;DHT22;387;48.772;9.186;2023-06-22T03:19:30;21.00;84.70
810;DHT22;387;48.772;9.186;2023-06-22T03:21:59;21.00;84.90
810;DHT22;387;48.772;9.186;2023-06-22T03:24:24;21.00;84.90
810;DHT22;387;48.772;9.186;2023-06-22T03:26:50;21.00;84.90
810;DHT22;387;48.772;9.186;2023-06-22T03:29:16;20.90;85.00
810;DHT22;387;48.772;9.186;2023-06-22T03:31:41;20.90;85.00
810;DHT22;387;48.772;9.186;2023-06-22T03:34:07;20.80;85.50
810;DHT22;387;48.772;9.186;2023-06-22T03:36:33;20.80;85.50
810;DHT22;387;48.772;9.186;2023-06-22T03:38:58;20.80;85.50
810;DHT22;387;48.772;9.186;2023-06-22T03:41:24;20.80;85.60
810;DHT22;387;48.772;9.186;2023-06-22T03:43:50;20.80;85.70
810;DHT22;387;48.772;9.186;2023-06-22T03:46:16;20.70;85.90
810;DHT22;387;48.772;9.186;2023-06-22T03:48:42;20.80;85.90
810;DHT22;387;48.772;9.186;2023-06-22T03:51:07;20.80;85.70
810;DHT22;387;48.772;9.186;2023-06-22T03:53:33;20.80;85.60
810;DHT22;387;48.772;9.186;2023-06-22T03:55:58;20.80;85.60
810;DHT22;387;48.772;9.186;2023-06-22T03:58:24;20.80;85.50
810;DHT22;387;48.772;9.186;2023-06-22T04:00:51;20.90;85.50
810;DHT22;387;48.772;9.186;2023-06-22T04:03:17;20.90;85.20
810;DHT22;387;48.772;9.186;2023-06-22T04:05:47;20.80;85.20
810;DHT22;387;48.772;9.186;2023-06-22T04:08:14;20.80;85.50
810;DHT22;387;48.772;9.186;2023-06-22T04:10:40;20.80;85.60
810;DHT22;387;48.772;9.186;2023-06-22T04:13:05;20.80;85.60
810;DHT22;387;48.772;9.186;2023-06-22T04:15:31;20.90;85.60
810;DHT22;387;48.772;9.186;2023-06-22T04:17:57;20.90;85.20
810;DHT22;387;48.772;9.186;2023-06-22T04:20:23;20.90;85.20
810;DHT22;387;48.772;9.186;2023-06-22T04:22:52;21.00;85.00
810;DHT22;387;48.772;9.186;2023-06-22T04:25:17;21.00;84.90
810;DHT22;387;48.772;9.186;2023-06-22T04:27:43;21.00;85.00
810;DHT22;387;48.772;9.186;2023-06-22T04:30:10;21.00;85.00
810;DHT22;387;48.772;9.186;2023-06-22T04:32:36;21.00;84.90
810;DHT22;387;48.772;9.186;2023-06-22T04:35:03;21.10;84.90
810;DHT22;387;48.772;9.186;2023-06-22T04:37:30;21.20;84.70
810;DHT22;387;48.772;9.186;2023-06-22T04:39:56;21.20;84.40
810;DHT22;387;48.772;9.186;2023-06-22T04:42:21;21.20;84.10
810;DHT22;387;48.772;9.186;2023-06-22T04:44:47;21.30;84.30
810;DHT22;387;48.772;9.186;2023-06-22T04:47:12;21.30;84.30
810;DHT22;387;48.772;9.186;2023-06-22T04:49:38;21.40;84.10
810;DHT22;387;48.772;9.186;2023-06-22T04:52:07;21.40;83.80
810;DHT22;387;48.772;9.186;2023-06-22T04:54:34;21.50;83.70
810;DHT22;387;48.772;9.186;2023-06-22T04:57:00;21.40;83.40
810;DHT22;387;48.772;9.186;2023-06-22T04:59:30;21.50;83.40
810;DHT22;387;48.772;9.186;2023-06-22T05:01:57;21.60;83.30
810;DHT22;387;48.772;9.186;2023-06-22T05:04:24;21.70;82.70
810;DHT22;387;48.772;9.186;2023-06-22T05:06:51;21.70;82.40
810;DHT22;387;48.772;9.186;2023-06-22T05:09:17;21.80;82.20
810;DHT22;387;48.772;9.186;2023-06-22T05:11:43;21.80;81.70
810;DHT22;387;48.772;9.186;2023-06-22T05:14:09;21.90;81.70
810;DHT22;387;48.772;9.186;2023-06-22T05:16:35;21.90;81.20
810;DHT22;387;48.772;9.186;2023-06-22T05:19:01;22.00;81.40
810;DHT22;387;48.772;9.186;2023-06-22T05:21:29;22.10;80.90
810;DHT22;387;48.772;9.186;2023-06-22T05:23:55;22.20;80.80
810;DHT22;387;48.772;9.186;2023-06-22T05:26:21;22.00;80.50
810;DHT22;387;48.772;9.186;2023-06-22T05:28:47;22.00;81.10
810;DHT22;387;48.772;9.186;2023-06-22T05:31:17;22.10;80.60
810;DHT22;387;48.772;9.186;2023-06-22T05:33:43;22.10;80.80
810;DHT22;387;48.772;9.186;2023-06-22T05:36:09;22.10;80.50
810;DHT22;387;48.772;9.186;2023-06-22T05:38:36;22.10;80.80
810;DHT22;387;48.772;9.186;2023-06-22T05:41:02;22.30;80.30
810;DHT22;387;48.772;9.186;2023-06-22T05:43:27;22.10;79.70
810;DHT22;387;48.772;9.186;2023-06-22T05:45:53;22.20;79.90
810;DHT22;387;48.772;9.186;2023-06-22T05:48:22;22.00;80.30
810;DHT22;387;48.772;9.186;2023-06-22T05:50:48;22.10;80.30
810;DHT22;387;48.772;9.186;2023-06-22T05:53:13;22.20;79.70
810;DHT22;387;48.772;9.186;2023-06-22T05:55:39;22.10;79.50
810;DHT22;387;48.772;9.186;2023-06-22T05:58:05;22.20;79.20
810;DHT22;387;48.772;9.186;2023-06-22T06:00:31;22.20;79.20
810;DHT22;387;48.772;9.186;2023-06-22T06:02:56;22.30;78.70
810;DHT22;387;48.772;9.186;2023-06-22T06:05:22;22.30;78.60
810;DHT22;387;48.772;9.186;2023-06-22T06:07:49;22.50;78.40
810;DHT22;387;48.772;9.186;2023-06-22T06:10:15;22.40;77.60
810;DHT22;387;48.772;9.186;2023-06-22T06:12:40;22.50;77.70
810;DHT22;387;48.772;9.186;2023-06-22T06:15:06;22.30;78.30
810;DHT22;387;48.772;9.186;2023-06-22T06:17:32;22.30;78.30
810;DHT22;387;48.772;9.186;2023-06-22T06:19:59;22.30;77.80
810;DHT22;387;48.772;9.186;2023-06-22T06:22:25;22.40;77.70
810;DHT22;387;48.772;9.186;2023-06-22T06:24:50;22.50;77.70
810;DHT22;387;48.772;9.186;2023-06-22T06:27:16;22.60;77.30
810;DHT22;387;48.772;9.186;2023-06-22T06:29:45;22.70;77.40
810;DHT22;387;48.772;9.186;2023-06-22T06:32:14;22.80;76.70
810;DHT22;387;48.772;9.186;2023-06-22T06:34:39;22.90;76.50
810;DHT22;387;48.772;9.186;2023-06-22T06:37:06;23.00;76.20
810;DHT22;387;48.772;9.186;2023-06-22T06:39:31;23.10;75.80
810;DHT22;387;48.772;9.186;2023-06-22T06:41:57;23.10;75.20
810;DHT22;387;48.772;9.186;2023-06-22T06:44:22;22.90;75.80
810;DHT22;387;48.772;9.186;2023-06-22T06:46:48;23.10;75.70
810;DHT22;387;48.772;9.186;2023-06-22T06:49:14;23.20;75.20
810;DHT22;387;48.772;9.186;2023-06-22T06:51:39;23.30;74.80
810;DHT22;387;48.772;9.186;2023-06-22T06:54:05;23.50;74.20
810;DHT22;387;48.772;9.186;2023-06-22T06:56:30;23.50;73.70
810;DHT22;387;48.772;9.186;2023-06-22T07:01:33;23.60;73.50
810;DHT22;387;48.772;9.186;2023-06-22T07:04:01;23.60;73.60
810;DHT22;387;48.772;9.186;2023-06-22T07:06:26;23.60;73.50
810;DHT22;387;48.772;9.186;2023-06-22T07:08:55;23.70;73.20
810;DHT22;387;48.772;9.186;2023-06-22T07:11:21;23.80;72.60
810;DHT22;387;48.772;9.186;2023-06-22T07:13:46;23.90;72.40
810;DHT22;387;48.772;9.186;2023-06-22T07:16:12;24.00;72.00
810;DHT22;387;48.772;9.186;2023-06-22T07:18:39;24.00;72.10
810;DHT22;387;48.772;9.186;2023-06-22T07:21:05;24.00;71.70
810;DHT22;387;48.772;9.186;2023-06-22T07:23:32;24.00;71.80
810;DHT22;387;48.772;9.186;2023-06-22T07:25:58;24.10;71.80
810;DHT22;387;48.772;9.186;2023-06-22T07:28:27;24.20;71.40
810;DHT22;387;48.772;9.186;2023-06-22T07:30:53;24.20;71.30
810;DHT22;387;48.772;9.186;2023-06-22T07:33:18;24.30;71.60
810;DHT22;387;48.772;9.186;2023-06-22T07:35:45;24.40;71.00
810;DHT22;387;48.772;9.186;2023-06-22T07:38:10;24.50;70.70
810;DHT22;387;48.772;9.186;2023-06-22T07:40:36;24.60;70.20
810;DHT22;387;48.772;9.186;2023-06-22T07:43:02;24.70;69.90
810;DHT22;387;48.772;9.186;2023-06-22T07:45:29;24.80;69.80
810;DHT22;387;48.772;9.186;2023-06-22T07:47:54;24.90;69.50
810;DHT22;387;48.772;9.186;2023-06-22T07:50:20;25.10;68.90
810;DHT22;387;48.772;9.186;2023-06-22T07:52:46;24.80;69.20
810;DHT22;387;48.772;9.186;2023-06-22T07:55:13;25.00;69.50
810;DHT22;387;48.772;9.186;2023-06-22T07:57:38;25.10;68.90
810;DHT22;387;48.772;9.186;2023-06-22T08:00:05;25.30;68.50
810;DHT22;387;48.772;9.186;2023-06-22T08:02:42;25.40;68.20
810;DHT22;387;48.772;9.186;2023-06-22T08:05:08;25.50;67.60
810;DHT22;387;48.772;9.186;2023-06-22T08:07:35;25.50;67.60
810;DHT22;387;48.772;9.186;2023-06-22T08:10:03;25.60;67.30
810;DHT22;387;48.772;9.186;2023-06-22T08:12:29;25.60;67.50
810;DHT22;387;48.772;9.186;2023-06-22T08:14:55;25.60;67.30
810;DHT22;387;48.772;9.186;2023-06-22T08:17:22;25.60;67.50
810;DHT22;387;48.772;9.186;2023-06-22T08:19:48;25.70;67.50
810;DHT22;387;48.772;9.186;2023-06-22T08:22:15;25.80;67.30
810;DHT22;387;48.772;9.186;2023-06-22T08:24:40;25.80;67.00
810;DHT22;387;48.772;9.186;2023-06-22T08:27:07;26.00;66.30
810;DHT22;387;48.772;9.186;2023-06-22T08:29:40;26.30;66.00
810;DHT22;387;48.772;9.186;2023-06-22T08:32:11;26.60;65.00
810;DHT22;387;48.772;9.186;2023-06-22T08:34:36;26.80;64.50
810;DHT22;387;48.772;9.186;2023-06-22T08:37:02;26.80;63.90
810;DHT22;387;48.772;9.186;2023-06-22T08:39:32;26.80;63.80
810;DHT22;387;48.772;9.186;2023-06-22T08:41:57;27.20;63.50
810;DHT22;387;48.772;9.186;2023-06-22T08:44:23;27.60;62.60
810;DHT22;387;48.772;9.186;2023-06-22T08:46:48;27.80;62.60
810;DHT22;387;48.772;9.186;2023-06-22T08:49:14;27.80;62.60
810;DHT22;387;48.772;9.186;2023-06-22T08:51:40;28.10;62.20
810;DHT22;387;48.772;9.186;2023-06-22T08:54:06;28.40;62.20
810;DHT22;387;48.772;9.186;2023-06-22T08:56:31;28.60;61.00
810;DHT22;387;48.772;9.186;2023-06-22T08:58:57;28.70;60.60
810;DHT22;387;48.772;9.186;2023-06-22T09:01:23;28.30;61.50
810;DHT22;387;48.772;9.186;2023-06-22T09:03:48;28.50;61.00
810;DHT22;387;48.772;9.186;2023-06-22T09:06:20;28.60;61.30
810;DHT22;387;48.772;9.186;2023-06-22T09:08:47;28.40;61.60
810;DHT22;387;48.772;9.186;2023-06-22T09:11:13;28.20;62.30
810;DHT22;387;48.772;9.186;2023-06-22T09:13:38;28.20;62.50
810;DHT22;387;48.772;9.186;2023-06-22T09:16:04;28.40;62.50
810;DHT22;387;48.772;9.186;2023-06-22T09:18:30;28.50;62.00
810;DHT22;387;48.772;9.186;2023-06-22T09:20:56;28.70;61.70
810;DHT22;387;48.772;9.186;2023-06-22T09:23:21;28.80;61.70
810;DHT22;387;48.772;9.186;2023-06-22T09:25:47;28.80;60.90
810;DHT22;387;48.772;9.186;2023-06-22T09:28:14;28.60;61.60
810;DHT22;387;48.772;9.186;2023-06-22T09:30:39;28.70;61.60
810;DHT22;387;48.772;9.186;2023-06-22T09:33:05;28.80;61.00
810;DHT22;387;48.772;9.186;2023-06-22T09:35:30;28.70;61.60
810;DHT22;387;48.772;9.186;2023-06-22T09:37:56;28.70;61.50
810;DHT22;387;48.772;9.186;2023-06-22T09:40:22;28.80;61.50
810;DHT22;387;48.772;9.186;2023-06-22T09:42:47;28.90;61.20
810;DHT22;387;48.772;9.186;2023-06-22T09:45:13;29.00;61.00
810;DHT22;387;48.772;9.186;2023-06-22T09:47:38;29.00;60.70
810;DHT22;387;48.772;9.186;2023-06-22T09:50:05;28.90;61.00
810;DHT22;387;48.772;9.186;2023-06-22T09:52:31;28.50;61.90
810;DHT22;387;48.772;9.186;2023-06-22T09:54:56;28.50;61.90
810;DHT22;387;48.772;9.186;2023-06-22T09:57:22;28.50;62.30
810;DHT22;387;48.772;9.186;2023-06-22T09:59:47;28.70;61.90
810;DHT22;387;48.772;9.186;2023-06-22T10:02:13;28.80;61.90
810;DHT22;387;48.772;9.186;2023-06-22T10:04:39;29.00;61.20
810;DHT22;387;48.772;9.186;2023-06-22T10:07:07;29.20;61.00
810;DHT22;387;48.772;9.186;2023-06-22T10:09:33;29.40;60.40
810;DHT22;387;48.772;9.186;2023-06-22T10:11:58;29.70;59.90
810;DHT22;387;48.772;9.186;2023-06-22T10:14:24;29.90;59.60
810;DHT22;387;48.772;9.186;2023-06-22T10:16:52;30.10;59.10
810;DHT22;387;48.772;9.186;2023-06-22T10:19:20;30.40;58.50
810;DHT22;387;48.772;9.186;2023-06-22T10:21:46;30.60;58.10
810;DHT22;387;48.772;9.186;2023-06-22T10:24:11;30.90;57.60
810;DHT22;387;48.772;9.186;2023-06-22T10:26:37;31.10;56.60
810;DHT22;387;48.772;9.186;2023-06-22T10:29:03;31.30;56.50
810;DHT22;387;48.772;9.186;2023-06-22T10:31:29;31.30;56.40
810;DHT22;387;48.772;9.186;2023-06-22T10:33:55;31.50;56.10
810;DHT22;387;48.772;9.186;2023-06-22T10:36:23;31.60;56.00
810;DHT22;387;48.772;9.186;2023-06-22T10:38:51;31.60;55.60
810;DHT22;387;48.772;9.186;2023-06-22T10:41:18;31.40;56.20
810;DHT22;387;48.772;9.186;2023-06-22T10:43:44;31.80;55.00
810;DHT22;387;48.772;9.186;2023-06-22T10:46:09;32.00;54.80
810;DHT22;387;48.772;9.186;2023-06-22T10:48:35;32.40;53.60
810;DHT22;387;48.772;9.186;2023-06-22T10:51:00;32.80;52.90
810;DHT22;387;48.772;9.186;2023-06-22T10:53:26;33.00;52.50
810;DHT22;387;48.772;9.186;2023-06-22T10:55:52;33.00;52.10
810;DHT22;387;48.772;9.186;2023-06-22T10:58:18;33.00;52.40
810;DHT22;387;48.772;9.186;2023-06-22T11:00:45;32.90;52.90
810;DHT22;387;48.772;9.186;2023-06-22T11:03:10;32.80;53.30
810;DHT22;387;48.772;9.186;2023-06-22T11:05:36;32.90;53.80
810;DHT22;387;48.772;9.186;2023-06-22T11:08:01;33.00;53.30
810;DHT22;387;48.772;9.186;2023-06-22T11:10:27;32.90;53.60
810;DHT22;387;48.772;9.186;2023-06-22T11:12:53;33.00;53.60
810;DHT22;387;48.772;9.186;2023-06-22T11:15:19;32.90;53.30
810;DHT22;387;48.772;9.186;2023-06-22T11:17:44;32.90;52.80
810;DHT22;387;48.772;9.186;2023-06-22T11:20:10;32.70;53.20
810;DHT22;387;48.772;9.186;2023-06-22T11:22:39;32.70;53.00
810;DHT22;387;48.772;9.186;2023-06-22T11:25:06;32.60;52.90
810;DHT22;387;48.772;9.186;2023-06-22T11:27:31;32.40;53.00
810;DHT22;387;48.772;9.186;2023-06-22T11:29:57;32.30;53.80
810;DHT22;387;48.772;9.186;2023-06-22T11:32:23;32.40;53.60
810;DHT22;387;48.772;9.186;2023-06-22T11:34:49;32.00;54.60
810;DHT22;387;48.772;9.186;2023-06-22T11:37:14;32.10;55.20
810;DHT22;387;48.772;9.186;2023-06-22T11:39:41;32.00;55.20
810;DHT22;387;48.772;9.186;2023-06-22T11:42:06;31.50;56.50
810;DHT22;387;48.772;9.186;2023-06-22T11:44:32;31.70;56.50
810;DHT22;387;48.772;9.186;2023-06-22T11:46:58;32.20;55.70
810;DHT22;387;48.772;9.186;2023-06-22T11:49:23;32.50;54.90
810;DHT22;387;48.772;9.186;2023-06-22T11:51:49;32.80;54.50
810;DHT22;387;48.772;9.186;2023-06-22T11:54:15;33.00;54.20
810;DHT22;387;48.772;9.186;2023-06-22T11:56:40;32.80;54.40
810;DHT22;387;48.772;9.186;2023-06-22T11:59:06;33.00;54.10
810;DHT22;387;48.772;9.186;2023-06-22T12:01:31;33.00;53.30
810;DHT22;387;48.772;9.186;2023-06-22T12:03:58;32.70;53.60
810;DHT22;387;48.772;9.186;2023-06-22T12:06:24;32.80;53.70
810;DHT22;387;48.772;9.186;2023-06-22T12:08:49;32.90;54.10
810;DHT22;387;48.772;9.186;2023-06-22T12:11:15;33.00;52.20
810;DHT22;387;48.772;9.186;2023-06-22T12:13:40;32.80;52.20
810;DHT22;387;48.772;9.186;2023-06-22T12:16:06;32.90;53.00
810;DHT22;387;48.772;9.186;2023-06-22T12:18:32;32.90;52.90
810;DHT22;387;48.772;9.186;2023-06-22T12:20:58;32.70;53.20
810;DHT22;387;48.772;9.186;2023-06-22T12:23:23;32.50;54.20
810;DHT22;387;48.772;9.186;2023-06-22T12:25:49;32.70;54.90
810;DHT22;387;48.772;9.186;2023-06-22T12:28:14;32.80;53.00
810;DHT22;387;48.772;9.186;2023-06-22T12:30:40;32.50;54.00
810;DHT22;387;48.772;9.186;2023-06-22T12:33:06;32.40;54.40
810;DHT22;387;48.772;9.186;2023-06-22T12:35:31;32.10;55.00
810;DHT22;387;48.772;9.186;2023-06-22T12:37:58;32.00;55.70
810;DHT22;387;48.772;9.186;2023-06-22T12:40:24;31.90;56.10
810;DHT22;387;48.772;9.186;2023-06-22T12:42:50;31.80;56.10
810;DHT22;387;48.772;9.186;2023-06-22T12:45:15;31.70;56.00
810;DHT22;387;48.772;9.186;2023-06-22T12:47:41;31.70;56.50
810;DHT22;387;48.772;9.186;2023-06-22T12:50:07;31.70;56.50
810;DHT22;387;48.772;9.186;2023-06-22T12:52:33;31.70;56.10
810;DHT22;387;48.772;9.186;2023-06-22T12:54:58;31.50;56.40
810;DHT22;387;48.772;9.186;2023-06-22T12:57:24;31.40;57.00
810;DHT22;387;48.772;9.186;2023-06-22T12:59:50;31.40;57.40
810;DHT22;387;48.772;9.186;2023-06-22T13:02:16;31.30;57.80
810;DHT22;387;48.772;9.186;2023-06-22T13:04:42;31.30;58.40
810;DHT22;387;48.772;9.186;2023-06-22T13:07:08;31.50;58.10
810;DHT22;387;48.772;9.186;2023-06-22T13:09:36;31.40;58.00
810;DHT22;387;48.772;9.186;2023-06-22T13:12:02;31.50;58.90
810;DHT22;387;48.772;9.186;2023-06-22T13:14:27;31.60;57.00
810;DHT22;387;48.772;9.186;2023-06-22T13:16:53;31.50;57.40
810;DHT22;387;48.772;9.186;2023-06-22T13:19:18;31.50;57.40
810;DHT22;387;48.772;9.186;2023-06-22T13:21:44;31.50;57.40
810;DHT22;387;48.772;9.186;2023-06-22T13:24:09;31.60;57.60
810;DHT22;387;48.772;9.186;2023-06-22T13:26:35;31.60;57.60
810;DHT22;387;48.772;9.186;2023-06-22T13:29:01;31.70;57.20
810;DHT22;387;48.772;9.186;2023-06-22T13:31:26;31.80;56.60
810;DHT22;387;48.772;9.186;2023-06-22T13:33:52;31.90;56.80
810;DHT22;387;48.772;9.186;2023-06-22T13:36:18;31.90;56.40
810;DHT22;387;48.772;9.186;2023-06-22T13:38:44;32.00;56.50
810;DHT22;387;48.772;9.186;2023-06-22T13:41:10;32.20;55.40
810;DHT22;387;48.772;9.186;2023-06-22T13:43:35;32.30;55.30
810;DHT22;387;48.772;9.186;2023-06-22T13:46:01;32.40;54.00
810;DHT22;387;48.772;9.186;2023-06-22T13:48:28;32.20;55.00
810;DHT22;387;48.772;9.186;2023-06-22T13:50:54;32.10;54.60
810;DHT22;387;48.772;9.186;2023-06-22T13:53:19;32.20;54.60
810;DHT22;387;48.772;9.186;2023-06-22T13:55:45;32.10;54.80
810;DHT22;387;48.772;9.186;2023-06-22T13:58:12;32.00;55.00
810;DHT22;387;48.772;9.186;2023-06-22T14:00:37;32.00;55.00
810;DHT22;387;48.772;9.186;2023-06-22T14:03:03;32.00;54.40
810;DHT22;387;48.772;9.186;2023-06-22T14:05:28;32.00;54.40
810;DHT22;387;48.772;9.186;2023-06-22T14:07:54;32.00;54.00
810;DHT22;387;48.772;9.186;2023-06-22T14:10:20;32.30;53.00
810;DHT22;387;48.772;9.186;2023-06-22T14:12:45;32.50;52.90
810;DHT22;387;48.772;9.186;2023-06-22T14:15:11;32.70;52.00
810;DHT22;387;48.772;9.186;2023-06-22T14:17:36;33.30;51.30
810;DHT22;387;48.772;9.186;2023-06-22T14:20:02;34.10;49.30
810;DHT22;387;48.772;9.186;2023-06-22T14:22:28;34.30;48.60
810;DHT22;387;48.772;9.186;2023-06-22T14:24:55;35.00;47.50
810;DHT22;387;48.772;9.186;2023-06-22T14:27:23;35.30;45.70
810;DHT22;387;48.772;9.186;2023-06-22T14:29:48;35.50;45.70
810;DHT22;387;48.772;9.186;2023-06-22T14:32:14;35.10;45.00
810;DHT22;387;48.772;9.186;2023-06-22T14:34:39;34.60;45.80
810;DHT22;387;48.772;9.186;2023-06-22T14:37:06;34.40;46.70
810;DHT22;387;48.772;9.186;2023-06-22T14:39:33;33.90;45.40
810;DHT22;387;48.772;9.186;2023-06-22T14:41:58;33.70;44.60
810;DHT22;387;48.772;9.186;2023-06-22T14:44:26;34.10;43.10
810;DHT22;387;48.772;9.186;2023-06-22T14:46:51;34.40;44.20
810;DHT22;387;48.772;9.186;2023-06-22T14:49:17;34.70;41.90
810;DHT22;387;48.772;9.186;2023-06-22T14:51:42;34.40;41.50
810;DHT22;387;48.772;9.186;2023-06-22T14:54:08;34.60;42.00
810;DHT22;387;48.772;9.186;2023-06-22T14:56:34;35.10;37.00
810;DHT22;387;48.772;9.186;2023-06-22T14:58:59;34.80;36.00
810;DHT22;387;48.772;9.186;2023-06-22T15:01:25;34.00;35.90
810;DHT22;387;48.772;9.186;2023-06-22T15:03:51;34.20;35.90
810;DHT22;387;48.772;9.186;2023-06-22T15:06:16;34.00;35.20
810;DHT22;387;48.772;9.186;2023-06-22T15:08:42;33.50;36.60
810;DHT22;387;48.772;9.186;2023-06-22T15:11:08;33.10;37.50
810;DHT22;387;48.772;9.186;2023-06-22T15:13:34;33.10;37.60
810;DHT22;387;48.772;9.186;2023-06-22T15:16:01;33.30;37.60
810;DHT22;387;48.772;9.186;2023-06-22T15:18:26;33.50;37.20
810;DHT22;387;48.772;9.186;2023-06-22T15:20:52;33.60;37.00
810;DHT22;387;48.772;9.186;2023-06-22T15:23:18;34.00;36.20
810;DHT22;387;48.772;9.186;2023-06-22T15:25:44;34.40;35.20
810;DHT22;387;48.772;9.186;2023-06-22T15:28:11;34.70;34.80
810;DHT22;387;48.772;9.186;2023-06-22T15:30:37;34.60;34.90
810;DHT22;387;48.772;9.186;2023-06-22T15:33:02;34.60;35.20
810;DHT22;387;48.772;9.186;2023-06-22T15:35:28;34.50;35.60
810;DHT22;387;48.772;9.186;2023-06-22T15:37:54;34.30;35.10
810;DHT22;387;48.772;9.186;2023-06-22T15:40:19;33.80;35.50
810;DHT22;387;48.772;9.186;2023-06-22T15:42:45;33.60;35.50
810;DHT22;387;48.772;9.186;2023-06-22T15:45:12;33.70;35.50
810;DHT22;387;48.772;9.186;2023-06-22T15:47:38;33.40;35.90
810;DHT22;387;48.772;9.186;2023-06-22T15:50:04;33.40;36.20
810;DHT22;387;48.772;9.186;2023-06-22T15:52:30;33.40;36.80
810;DHT22;387;48.772;9.186;2023-06-22T15:54:55;33.30;36.40
810;DHT22;387;48.772;9.186;2023-06-22T15:57:24;32.90;37.20
810;DHT22;387;48.772;9.186;2023-06-22T15:59:51;32.70;38.00
810;DHT22;387;48.772;9.186;2023-06-22T16:02:17;32.70;38.60
810;DHT22;387;48.772;9.186;2023-06-22T16:04:43;32.60;38.80
810;DHT22;387;48.772;9.186;2023-06-22T16:07:09;32.40;39.80
810;DHT22;387;48.772;9.186;2023-06-22T16:09:37;32.10;40.70
810;DHT22;387;48.772;9.186;2023-06-22T16:12:02;31.90;41.20
810;DHT22;387;48.772;9.186;2023-06-22T16:14:28;31.80;41.50
810;DHT22;387;48.772;9.186;2023-06-22T16:16:54;31.70;41.60
810;DHT22;387;48.772;9.186;2023-06-22T16:19:19;31.70;42.30
810;DHT22;387;48.772;9.186;2023-06-22T16:21:45;31.60;42.40
810;DHT22;387;48.772;9.186;2023-06-22T16:24:10;31.50;42.20
810;DHT22;387;48.772;9.186;2023-06-22T16:26:41;31.40;42.70
810;DHT22;387;48.772;9.186;2023-06-22T16:29:07;31.30;43.20
810;DHT22;387;48.772;9.186;2023-06-22T16:31:33;31.20;43.90
810;DHT22;387;48.772;9.186;2023-06-22T16:33:59;31.20;44.10
810;DHT22;387;48.772;9.186;2023-06-22T16:36:24;31.20;44.30
810;DHT22;387;48.772;9.186;2023-06-22T16:38:50;31.10;43.80